Abilene, Texas
Current Conditions -  °F | °C
As of 2:52 PM on Thursday 18 Dec 2014 (Local Time) from KABI Reporting Station
Clear Clear  
Wind Chill: 62°   Ceiling: Unl
Heat Index: 62°   Visibility: 10mi
Dew Point: 34°   Wind: 7mph
Humidity: 35%   Direction: 340°NNW
Pressure: 30.06"   Gusts: NA
Location:  32.45°N, 99.74°W
Report Text: KABI 182052Z 34006KT 10SM CLR 17/01 A3006 RMK AO2 SLP170 T01670011 56021
Loading
Personal Weather Stations






























Interactive Weather Map New forecast layout! Learn more

10-Day Weather Forecast

Advertisements
Track Severe Weather on mobile